createdAt,value
2018-02-08T00:00:44.386Z,-4.86
2018-02-08T00:03:11.878Z,-4.83
2018-02-08T00:05:39.342Z,-4.85
2018-02-08T00:08:06.823Z,-4.85
2018-02-08T00:10:34.290Z,-4.86
2018-02-08T00:13:01.772Z,-4.84
2018-02-08T00:15:29.259Z,-4.90
2018-02-08T00:17:56.746Z,-4.93
2018-02-08T00:20:24.210Z,-5.01
2018-02-08T00:22:51.729Z,-5.05
2018-02-08T00:25:19.223Z,-5.18
2018-02-08T00:27:46.714Z,-5.07
2018-02-08T00:30:14.183Z,-4.95
2018-02-08T00:32:41.666Z,-5.03
2018-02-08T00:35:09.130Z,-4.96
2018-02-08T00:37:36.610Z,-5.00
2018-02-08T00:40:04.070Z,-4.98
2018-02-08T00:42:31.562Z,-5.01
2018-02-08T00:44:59.147Z,-5.01
2018-02-08T00:47:26.630Z,-5.08
2018-02-08T00:49:54.097Z,-5.12
2018-02-08T00:52:21.591Z,-5.11
2018-02-08T00:54:49.065Z,-5.16
2018-02-08T00:57:16.734Z,-5.17
2018-02-08T00:59:44.189Z,-5.20
2018-02-08T01:02:11.648Z,-5.30
2018-02-08T01:04:39.135Z,-5.34
2018-02-08T01:07:06.594Z,-5.45
2018-02-08T01:09:34.084Z,-5.48
2018-02-08T01:12:01.546Z,-5.47
2018-02-08T01:14:29.097Z,-5.40
2018-02-08T01:16:56.518Z,-5.40
2018-02-08T01:19:23.998Z,-5.42
2018-02-08T01:21:51.455Z,-5.46
2018-02-08T01:24:18.940Z,-5.46
2018-02-08T01:26:46.438Z,-5.52
2018-02-08T01:29:13.919Z,-5.40
2018-02-08T01:31:41.391Z,-5.46
2018-02-08T01:34:08.890Z,-5.48
2018-02-08T01:36:36.359Z,-5.58
2018-02-08T01:39:03.838Z,-5.63
2018-02-08T01:41:31.306Z,-5.68
2018-02-08T01:43:58.818Z,-5.69
2018-02-08T01:46:26.291Z,-5.81
2018-02-08T01:48:53.781Z,-5.88
2018-02-08T01:51:21.251Z,-5.90
2018-02-08T01:53:48.735Z,-5.96
2018-02-08T01:56:16.194Z,-5.95
2018-02-08T01:58:43.678Z,-5.93
2018-02-08T02:01:11.143Z,-5.99
2018-02-08T02:03:38.636Z,-6.01
2018-02-08T02:06:06.095Z,-6.02
2018-02-08T02:08:33.580Z,-6.03
2018-02-08T02:11:01.139Z,-5.77
2018-02-08T02:13:28.622Z,-5.71
2018-02-08T02:15:56.092Z,-5.70
2018-02-08T02:18:23.579Z,-5.78
2018-02-08T02:20:51.049Z,-5.78
2018-02-08T02:23:18.537Z,-5.73
2018-02-08T02:25:46.019Z,-5.65
2018-02-08T02:28:13.483Z,-5.65
2018-02-08T02:30:40.980Z,-5.71
2018-02-08T02:33:08.447Z,-5.78
2018-02-08T02:35:35.922Z,-5.83
2018-02-08T02:38:03.402Z,-5.84
2018-02-08T02:40:30.888Z,-5.83
2018-02-08T02:42:58.376Z,-5.87
2018-02-08T02:45:25.856Z,-5.93
2018-02-08T02:47:53.318Z,-6.07
2018-02-08T02:50:20.817Z,-6.09
2018-02-08T02:52:48.299Z,-6.07
2018-02-08T02:55:15.804Z,-6.17
2018-02-08T02:57:43.279Z,-6.06
2018-02-08T03:00:10.771Z,-6.03
2018-02-08T03:02:38.235Z,-6.00
2018-02-08T03:05:05.718Z,-5.96
2018-02-08T03:07:33.194Z,-5.93
2018-02-08T03:10:00.694Z,-5.96
2018-02-08T03:12:28.154Z,-5.93
2018-02-08T03:14:55.638Z,-5.90
2018-02-08T03:17:23.111Z,-5.89
2018-02-08T03:19:50.599Z,-5.93
2018-02-08T03:22:18.068Z,-6.09
2018-02-08T03:24:45.559Z,-6.22
2018-02-08T03:27:13.023Z,-6.28
2018-02-08T03:29:40.505Z,-6.35
2018-02-08T03:32:07.996Z,-6.37
2018-02-08T03:34:35.491Z,-6.42
2018-02-08T03:37:02.966Z,-6.42
2018-02-08T03:39:30.462Z,-6.45
2018-02-08T03:41:57.930Z,-6.44
2018-02-08T03:44:25.417Z,-6.50
2018-02-08T03:46:52.990Z,-6.54
2018-02-08T03:49:20.470Z,-6.54
2018-02-08T03:51:47.933Z,-6.59
2018-02-08T03:54:15.418Z,-6.63
2018-02-08T03:56:42.906Z,-6.60
2018-02-08T03:59:10.369Z,-6.63
2018-02-08T04:01:37.851Z,-6.65
2018-02-08T04:04:05.312Z,-6.66
2018-02-08T04:06:32.804Z,-6.59
2018-02-08T04:09:00.406Z,-6.53
2018-02-08T04:11:27.886Z,-6.57
2018-02-08T04:13:55.360Z,-6.61
2018-02-08T04:16:22.851Z,-6.61
2018-02-08T04:18:50.318Z,-6.59
2018-02-08T04:21:17.819Z,-6.52
2018-02-08T04:23:45.302Z,-6.57
2018-02-08T04:26:12.786Z,-6.60
2018-02-08T04:28:40.254Z,-6.65
2018-02-08T04:31:07.743Z,-6.64
2018-02-08T04:33:35.210Z,-6.65
2018-02-08T04:36:02.700Z,-6.71
2018-02-08T04:38:41.941Z,-6.75
2018-02-08T04:41:21.101Z,-6.71
2018-02-08T04:44:00.456Z,-6.33
2018-02-08T04:46:39.725Z,-6.30
2018-02-08T04:49:07.230Z,-6.27
2018-02-08T04:51:34.713Z,-6.30
2018-02-08T04:54:02.205Z,-6.27
2018-02-08T04:56:29.854Z,-6.32
2018-02-08T04:58:57.322Z,-6.39
2018-02-08T05:01:24.806Z,-6.38
2018-02-08T05:03:52.262Z,-6.37
2018-02-08T05:06:19.746Z,-6.34
2018-02-08T05:08:47.216Z,-6.32
2018-02-08T05:11:14.707Z,-6.39
2018-02-08T05:13:42.171Z,-6.51
2018-02-08T05:16:09.657Z,-6.65
2018-02-08T05:18:37.120Z,-6.73
2018-02-08T05:21:04.604Z,-6.76
2018-02-08T05:23:32.071Z,-6.85
2018-02-08T05:25:59.718Z,-6.88
2018-02-08T05:28:27.191Z,-6.94
2018-02-08T05:30:54.686Z,-6.96
2018-02-08T05:33:22.175Z,-6.98
2018-02-08T05:35:49.678Z,-6.97
2018-02-08T05:38:17.162Z,-7.00
2018-02-08T05:40:44.631Z,-7.01
2018-02-08T05:43:12.111Z,-7.01
2018-02-08T05:45:39.570Z,-6.99
2018-02-08T05:48:07.059Z,-6.96
2018-02-08T05:50:34.531Z,-7.02
2018-02-08T05:53:02.015Z,-6.98
2018-02-08T05:55:29.479Z,-6.99
2018-02-08T05:57:56.959Z,-7.03
2018-02-08T06:00:24.458Z,-6.99
2018-02-08T06:02:51.950Z,-7.04
2018-02-08T06:05:19.434Z,-7.11
2018-02-08T06:07:46.919Z,-7.13
2018-02-08T06:10:14.390Z,-7.14
2018-02-08T06:12:41.876Z,-7.14
2018-02-08T06:15:09.338Z,-7.13
2018-02-08T06:17:36.912Z,-7.21
2018-02-08T06:20:04.385Z,-7.26
2018-02-08T06:22:31.883Z,-7.22
2018-02-08T06:25:00.497Z,-7.25
2018-02-08T06:27:27.962Z,-7.26
2018-02-08T06:29:55.427Z,-7.30
2018-02-08T06:32:22.927Z,-7.27
2018-02-08T06:34:50.394Z,-7.31
2018-02-08T06:37:17.877Z,-7.29
2018-02-08T06:39:45.351Z,-7.27
2018-02-08T06:42:12.831Z,-7.30
2018-02-08T06:47:14.030Z,-7.30
2018-02-08T06:49:41.491Z,-7.29
2018-02-08T06:52:08.984Z,-7.33
2018-02-08T06:54:36.458Z,-7.37
2018-02-08T06:57:03.940Z,-7.35
2018-02-08T06:59:31.403Z,-7.31
2018-02-08T07:01:58.864Z,-7.33
2018-02-08T07:04:26.345Z,-7.37
2018-02-08T07:06:53.814Z,-7.33
2018-02-08T07:09:21.299Z,-7.27
2018-02-08T07:11:48.764Z,-7.19
2018-02-08T07:14:16.247Z,-7.15
2018-02-08T07:16:43.714Z,-7.13
2018-02-08T07:19:11.199Z,-7.07
2018-02-08T07:21:38.668Z,-7.01
2018-02-08T07:24:06.147Z,-6.92
2018-02-08T07:26:33.614Z,-6.82
2018-02-08T07:29:01.104Z,-6.70
2018-02-08T07:31:28.683Z,-6.70
2018-02-08T07:33:56.208Z,-6.56
2018-02-08T07:36:23.672Z,-6.48
2018-02-08T07:38:51.165Z,-6.34
2018-02-08T07:41:18.634Z,-6.26
2018-02-08T07:43:46.160Z,-6.20
2018-02-08T07:46:13.629Z,-6.16
2018-02-08T07:48:41.114Z,-6.05
2018-02-08T07:51:08.587Z,-5.88
2018-02-08T07:53:36.080Z,-5.76
2018-02-08T07:56:03.552Z,-5.61
2018-02-08T07:58:31.043Z,-5.47
2018-02-08T08:00:58.513Z,-5.29
2018-02-08T08:03:26.003Z,-5.15
2018-02-08T08:05:53.518Z,-4.97
2018-02-08T08:08:21.030Z,-4.76
2018-02-08T08:10:48.530Z,-4.59
2018-02-08T08:13:16.024Z,-4.55
2018-02-08T08:15:43.497Z,-4.36
2018-02-08T08:18:10.990Z,-4.17
2018-02-08T08:20:38.459Z,-4.07
2018-02-08T08:23:05.936Z,-3.93
2018-02-08T08:25:33.428Z,-3.92
2018-02-08T08:28:00.899Z,-3.76
2018-02-08T08:30:28.395Z,-3.76
2018-02-08T08:32:55.854Z,-3.84
2018-02-08T08:35:23.346Z,-3.47
2018-02-08T08:37:50.850Z,-3.33
2018-02-08T08:40:18.331Z,-3.46
2018-02-08T08:42:45.804Z,-3.56
2018-02-08T08:45:13.303Z,-3.63
2018-02-08T08:47:40.775Z,-3.63
2018-02-08T08:50:08.268Z,-3.42
2018-02-08T08:52:35.743Z,-3.29
2018-02-08T08:55:03.235Z,-3.37
2018-02-08T08:57:30.710Z,-3.46
2018-02-08T08:59:58.194Z,-3.26
2018-02-08T09:02:25.674Z,-3.03
2018-02-08T09:04:53.167Z,-2.87
2018-02-08T09:07:20.634Z,-2.74
2018-02-08T09:09:48.123Z,-2.62
2018-02-08T09:12:15.613Z,-2.51
2018-02-08T09:14:43.318Z,-2.38
2018-02-08T09:17:10.787Z,-2.43
2018-02-08T09:19:38.270Z,-2.31
2018-02-08T09:22:05.737Z,-1.98
2018-02-08T09:24:33.258Z,-1.80
2018-02-08T09:27:00.725Z,-1.82
2018-02-08T09:29:28.217Z,-1.66
2018-02-08T09:31:55.710Z,-1.40
2018-02-08T09:34:23.207Z,-1.09
2018-02-08T09:36:50.675Z,-0.91
2018-02-08T09:39:18.171Z,-1.16
2018-02-08T09:41:45.646Z,-1.00
2018-02-08T09:44:13.166Z,-1.02
2018-02-08T09:46:40.634Z,-1.13
2018-02-08T09:49:08.103Z,-1.35
2018-02-08T09:51:35.610Z,-1.40
2018-02-08T09:54:03.081Z,-1.40
2018-02-08T09:56:30.575Z,-1.17
2018-02-08T09:58:58.038Z,-0.87
2018-02-08T10:01:25.520Z,-0.79
2018-02-08T10:03:52.991Z,-0.75
2018-02-08T10:06:21.046Z,-0.60
2018-02-08T10:08:49.423Z,-0.52
2018-02-08T10:11:17.771Z,-0.72
2018-02-08T10:13:45.340Z,-0.94
2018-02-08T10:16:12.935Z,-0.87
2018-02-08T10:18:40.457Z,-1.33
2018-02-08T10:21:07.951Z,-1.61
2018-02-08T10:23:35.430Z,-1.55
2018-02-08T10:26:02.915Z,-1.33
2018-02-08T10:28:30.427Z,-1.65
2018-02-08T10:30:57.884Z,-1.35
2018-02-08T10:33:25.360Z,-1.22
2018-02-08T10:35:52.858Z,-1.05
2018-02-08T10:38:20.321Z,-1.29
2018-02-08T10:40:47.944Z,-0.99
2018-02-08T10:43:15.406Z,-0.90
2018-02-08T10:45:43.835Z,-0.64
2018-02-08T10:48:11.298Z,-0.76
2018-02-08T10:50:38.798Z,-0.68
2018-02-08T10:53:06.495Z,-0.78
2018-02-08T10:55:33.975Z,-0.57
2018-02-08T10:58:01.444Z,-0.65
2018-02-08T11:00:29.159Z,-0.61
2018-02-08T11:02:56.636Z,-0.39
2018-02-08T11:05:25.131Z,-0.54
2018-02-08T11:07:52.603Z,-0.31
2018-02-08T11:10:20.091Z,-0.13
2018-02-08T11:12:47.552Z,-0.11
2018-02-08T11:15:15.018Z,-0.09
2018-02-08T11:17:42.506Z,-0.26
2018-02-08T11:20:09.999Z,-0.17
2018-02-08T11:22:37.501Z,-0.15
2018-02-08T11:25:05.003Z,-0.38
2018-02-08T11:27:32.523Z,-0.17
2018-02-08T11:29:59.997Z,-0.07
2018-02-08T11:32:27.515Z,-0.30
2018-02-08T11:34:55.011Z,-0.06
2018-02-08T11:37:22.537Z,-0.13
2018-02-08T11:39:50.012Z,0.09
2018-02-08T11:42:17.515Z,-0.05
2018-02-08T11:44:44.995Z,-0.04
2018-02-08T11:47:12.661Z,-0.21
2018-02-08T11:49:40.135Z,0.00
2018-02-08T11:52:07.779Z,-0.08
2018-02-08T11:54:35.248Z,0.01
2018-02-08T11:57:03.073Z,0.25
2018-02-08T11:59:30.579Z,0.45
2018-02-08T12:01:58.087Z,0.35
2018-02-08T12:04:25.576Z,0.62
2018-02-08T12:06:53.075Z,0.93
2018-02-08T12:09:20.959Z,1.17
2018-02-08T12:11:48.456Z,1.35
2018-02-08T12:14:20.172Z,1.34
2018-02-08T12:16:48.171Z,1.50
2018-02-08T12:19:15.810Z,1.50
2018-02-08T12:21:43.384Z,1.26
2018-02-08T12:24:12.217Z,0.93
2018-02-08T12:26:40.068Z,1.07
2018-02-08T12:29:07.603Z,1.28
2018-02-08T12:31:35.146Z,0.57
2018-02-08T12:34:02.602Z,0.86
2018-02-08T12:36:30.880Z,0.37
2018-02-08T12:39:01.078Z,0.74
2018-02-08T12:41:28.784Z,1.08
2018-02-08T12:43:56.458Z,1.39
2018-02-08T12:46:26.568Z,1.50
2018-02-08T12:48:56.480Z,1.46
2018-02-08T12:51:23.995Z,1.19
2018-02-08T12:53:51.479Z,1.64
2018-02-08T12:56:19.628Z,1.78
2018-02-08T12:58:47.166Z,1.73
2018-02-08T13:01:15.921Z,2.06
2018-02-08T13:03:43.453Z,2.24
2018-02-08T13:06:10.982Z,2.12
2018-02-08T13:08:39.607Z,2.26
2018-02-08T13:11:08.362Z,1.95
2018-02-08T13:13:36.805Z,2.17
2018-02-08T13:16:04.741Z,2.36
2018-02-08T13:18:33.324Z,2.43
2018-02-08T13:21:04.800Z,2.55
2018-02-08T13:23:32.312Z,2.55
2018-02-08T13:26:00.005Z,2.25
2018-02-08T13:28:27.568Z,1.78
2018-02-08T13:30:56.361Z,1.94
2018-02-08T13:33:24.177Z,2.10
2018-02-08T13:35:52.735Z,2.81
2018-02-08T13:38:20.285Z,3.09
2018-02-08T13:40:50.479Z,2.82
2018-02-08T13:43:17.995Z,3.22
2018-02-08T13:45:45.467Z,3.44
2018-02-08T13:48:31.914Z,3.32
2018-02-08T13:51:04.990Z,2.88
2018-02-08T13:56:48.778Z,4.88
2018-02-08T13:59:21.919Z,5.51
2018-02-08T14:01:50.327Z,4.92
2018-02-08T14:04:17.811Z,5.61
2018-02-08T14:06:45.296Z,6.80
2018-02-08T14:09:12.783Z,5.19
2018-02-08T14:11:40.264Z,5.77
2018-02-08T14:14:07.765Z,6.39
2018-02-08T14:16:35.226Z,7.40
2018-02-08T14:19:02.714Z,8.52
2018-02-08T14:21:30.174Z,8.98
2018-02-08T14:23:57.666Z,9.17
2018-02-08T14:26:25.125Z,9.63
2018-02-08T14:28:52.615Z,10.25
2018-02-08T14:31:20.080Z,10.46
2018-02-08T14:33:47.566Z,10.44
2018-02-08T14:36:15.042Z,10.40
2018-02-08T14:38:42.516Z,10.03
2018-02-08T14:41:10.006Z,10.46
2018-02-08T14:43:37.482Z,10.51
2018-02-08T14:46:05.022Z,8.49
2018-02-08T14:48:32.450Z,9.32
2018-02-08T14:50:59.926Z,9.84
2018-02-08T14:53:27.404Z,8.92
2018-02-08T14:55:54.895Z,7.59
2018-02-08T14:58:22.358Z,8.15
2018-02-08T15:00:49.864Z,7.83
2018-02-08T15:03:17.328Z,7.71
2018-02-08T15:05:44.827Z,7.03
2018-02-08T15:08:12.336Z,6.51
2018-02-08T15:10:39.832Z,6.68
2018-02-08T15:13:07.306Z,8.00
2018-02-08T15:15:34.786Z,8.65
2018-02-08T15:18:02.257Z,8.62
2018-02-08T15:20:30.089Z,7.78
2018-02-08T15:22:57.988Z,7.40
2018-02-08T15:25:25.842Z,6.99
2018-02-08T15:27:53.772Z,6.35
2018-02-08T15:30:21.335Z,5.69
2018-02-08T15:32:49.846Z,5.02
2018-02-08T15:35:17.376Z,4.48
2018-02-08T15:37:45.071Z,3.60
2018-02-08T15:40:12.892Z,3.49
2018-02-08T15:42:40.357Z,3.12
2018-02-08T15:45:08.208Z,2.34
2018-02-08T15:47:35.734Z,2.56
2018-02-08T15:50:03.256Z,2.30
2018-02-08T15:52:31.237Z,2.05
2018-02-08T15:54:58.753Z,2.08
2018-02-08T15:57:26.612Z,1.98
2018-02-08T15:59:54.444Z,1.89
2018-02-08T16:02:21.938Z,1.72
2018-02-08T16:04:49.426Z,1.52
2018-02-08T16:07:16.950Z,1.35
2018-02-08T16:09:44.937Z,1.15
2018-02-08T16:12:12.766Z,0.91
2018-02-08T16:14:40.234Z,0.76
2018-02-08T16:17:07.711Z,0.60
2018-02-08T16:19:35.217Z,0.48
2018-02-08T16:22:02.703Z,0.27
2018-02-08T16:24:30.170Z,0.10
2018-02-08T16:26:57.654Z,-0.03
2018-02-08T16:29:25.188Z,-0.17
2018-02-08T16:31:52.679Z,-0.32
2018-02-08T16:34:20.159Z,-0.48
2018-02-08T16:36:47.652Z,-0.59
2018-02-08T16:39:15.132Z,-0.70
2018-02-08T16:41:42.611Z,-0.82
2018-02-08T16:44:10.090Z,-0.93
2018-02-08T16:46:37.582Z,-1.02
2018-02-08T16:49:05.058Z,-1.13
2018-02-08T16:51:32.539Z,-1.21
2018-02-08T16:54:00.027Z,-1.35
2018-02-08T16:56:27.510Z,-1.37
2018-02-08T16:58:54.989Z,-1.44
2018-02-08T17:01:22.479Z,-1.52
2018-02-08T17:03:49.947Z,-1.58
2018-02-08T17:06:17.435Z,-1.64
2018-02-08T17:08:44.911Z,-1.66
2018-02-08T17:11:12.411Z,-1.70
2018-02-08T17:13:39.875Z,-1.76
2018-02-08T17:16:07.364Z,-1.80
2018-02-08T17:18:34.832Z,-1.87
2018-02-08T17:21:02.303Z,-1.88
2018-02-08T17:23:29.796Z,-1.89
2018-02-08T17:25:57.268Z,-1.87
2018-02-08T17:28:24.773Z,-1.89
2018-02-08T17:30:52.243Z,-1.91
2018-02-08T17:33:19.750Z,-1.96
2018-02-08T17:35:47.479Z,-2.02
2018-02-08T17:38:15.005Z,-2.09
2018-02-08T17:40:42.495Z,-2.16
2018-02-08T17:43:09.996Z,-2.21
2018-02-08T17:45:37.467Z,-2.30
2018-02-08T17:48:04.968Z,-2.45
2018-02-08T17:50:32.433Z,-2.53
2018-02-08T17:52:59.926Z,-2.68
2018-02-08T17:55:27.650Z,-2.77
2018-02-08T17:57:55.153Z,-2.87
2018-02-08T18:00:22.619Z,-2.93
2018-02-08T18:02:50.108Z,-2.95
2018-02-08T18:05:17.602Z,-3.00
2018-02-08T18:07:45.094Z,-3.02
2018-02-08T18:10:12.605Z,-3.03
2018-02-08T18:12:40.067Z,-3.02
2018-02-08T18:15:07.534Z,-3.00
2018-02-08T18:17:35.047Z,-2.98
2018-02-08T18:20:02.516Z,-2.97
2018-02-08T18:22:30.008Z,-2.99
2018-02-08T18:24:57.499Z,-3.03
2018-02-08T18:27:24.993Z,-3.01
2018-02-08T18:29:52.475Z,-3.03
2018-02-08T18:32:19.967Z,-3.06
2018-02-08T18:34:48.354Z,-3.04
2018-02-08T18:37:15.860Z,-3.05
2018-02-08T18:39:43.335Z,-3.05
2018-02-08T18:42:10.832Z,-3.07
2018-02-08T18:44:38.302Z,-3.10
2018-02-08T18:47:05.773Z,-3.16
2018-02-08T18:49:33.308Z,-3.17
2018-02-08T18:52:00.793Z,-3.20
2018-02-08T18:54:28.271Z,-3.21
2018-02-08T18:56:55.762Z,-3.19
2018-02-08T18:59:23.257Z,-3.21
2018-02-08T19:01:50.750Z,-3.22
2018-02-08T19:04:18.243Z,-3.28
2018-02-08T19:06:45.702Z,-3.34
2018-02-08T19:09:13.208Z,-3.39
2018-02-08T19:11:40.679Z,-3.48
2018-02-08T19:14:08.178Z,-3.56
2018-02-08T19:16:35.643Z,-3.64
2018-02-08T19:19:03.149Z,-3.71
2018-02-08T19:21:30.631Z,-3.73
2018-02-08T19:23:58.116Z,-3.76
2018-02-08T19:26:25.587Z,-3.81
2018-02-08T19:28:53.076Z,-3.90
2018-02-08T19:31:20.546Z,-3.86
2018-02-08T19:33:48.065Z,-3.93
2018-02-08T19:36:15.526Z,-3.91
2018-02-08T19:38:43.010Z,-3.99
2018-02-08T19:41:10.482Z,-3.98
2018-02-08T19:43:37.959Z,-4.00
2018-02-08T19:46:05.543Z,-4.07
2018-02-08T19:48:33.051Z,-4.07
2018-02-08T19:51:01.499Z,-4.09
2018-02-08T19:53:28.984Z,-4.11
2018-02-08T19:55:56.455Z,-4.10
2018-02-08T19:58:23.951Z,-4.20
2018-02-08T20:00:51.436Z,-4.18
2018-02-08T20:03:18.967Z,-4.16
2018-02-08T20:05:46.446Z,-4.13
2018-02-08T20:08:13.906Z,-4.09
2018-02-08T20:10:41.400Z,-4.10
2018-02-08T20:13:08.871Z,-4.16
2018-02-08T20:15:36.366Z,-4.18
2018-02-08T20:18:03.863Z,-4.26
2018-02-08T20:20:31.346Z,-4.33
2018-02-08T20:22:58.816Z,-4.33
2018-02-08T20:25:41.963Z,-4.29
2018-02-08T20:28:09.434Z,-4.32
2018-02-08T20:30:36.923Z,-4.32
2018-02-08T20:33:04.404Z,-4.33
2018-02-08T20:35:31.890Z,-4.35
2018-02-08T20:37:59.356Z,-4.38
2018-02-08T20:40:26.851Z,-4.43
2018-02-08T20:43:00.187Z,-4.47
2018-02-08T20:45:28.211Z,-4.54
2018-02-08T20:47:55.699Z,-4.57
2018-02-08T20:50:23.231Z,-4.60
2018-02-08T20:52:51.725Z,-4.61
2018-02-08T20:55:19.231Z,-4.61
2018-02-08T20:57:46.709Z,-4.61
2018-02-08T21:00:14.229Z,-4.65
2018-02-08T21:02:41.713Z,-4.65
2018-02-08T21:05:09.212Z,-4.69
2018-02-08T21:07:36.730Z,-4.69
2018-02-08T21:10:04.228Z,-4.66
2018-02-08T21:12:32.204Z,-4.70
2018-02-08T21:14:59.703Z,-4.70
2018-02-08T21:17:27.209Z,-4.74
2018-02-08T21:19:54.695Z,-4.75
2018-02-08T21:22:22.160Z,-4.74
2018-02-08T21:24:49.664Z,-4.75
2018-02-08T21:27:17.148Z,-4.79
2018-02-08T21:29:44.674Z,-4.77
2018-02-08T21:32:12.371Z,-4.81
2018-02-08T21:34:39.972Z,-4.87
2018-02-08T21:37:07.463Z,-4.89
2018-02-08T21:39:34.976Z,-4.91
2018-02-08T21:42:02.499Z,-4.95
2018-02-08T21:44:29.987Z,-4.99
2018-02-08T21:46:57.483Z,-4.99
2018-02-08T21:49:24.959Z,-5.02
2018-02-08T21:51:52.455Z,-5.03
2018-02-08T21:54:19.934Z,-5.05
2018-02-08T21:56:47.472Z,-5.04
2018-02-08T21:59:14.939Z,-5.06
2018-02-08T22:01:42.434Z,-5.06
2018-02-08T22:04:09.919Z,-5.06
2018-02-08T22:06:37.406Z,-5.08
2018-02-08T22:09:04.916Z,-5.05
2018-02-08T22:11:32.405Z,-5.06
2018-02-08T22:13:59.874Z,-5.15
2018-02-08T22:16:27.365Z,-5.21
2018-02-08T22:18:54.835Z,-5.23
2018-02-08T22:21:22.332Z,-5.25
2018-02-08T22:23:49.875Z,-5.27
2018-02-08T22:26:17.359Z,-5.28
2018-02-08T22:28:44.831Z,-5.27
2018-02-08T22:31:12.310Z,-5.29
2018-02-08T22:33:39.783Z,-5.29
2018-02-08T22:36:07.303Z,-5.24
2018-02-08T22:38:35.736Z,-5.22
2018-02-08T22:41:03.263Z,-5.25
2018-02-08T22:43:31.018Z,-5.26
2018-02-08T22:45:58.898Z,-5.22
2018-02-08T22:48:26.631Z,-5.25
2018-02-08T22:50:54.138Z,-5.25
2018-02-08T22:53:21.635Z,-5.23
2018-02-08T22:55:49.214Z,-5.21
2018-02-08T22:58:16.715Z,-5.23
2018-02-08T23:00:45.016Z,-5.23
2018-02-08T23:03:12.845Z,-5.25
2018-02-08T23:05:40.377Z,-5.26
2018-02-08T23:08:08.427Z,-5.28
2018-02-08T23:10:36.369Z,-5.24
2018-02-08T23:13:03.916Z,-5.24
2018-02-08T23:15:31.709Z,-5.20
2018-02-08T23:17:59.250Z,-5.19
2018-02-08T23:20:26.759Z,-5.22
2018-02-08T23:22:54.327Z,-5.23
2018-02-08T23:25:22.669Z,-5.27
2018-02-08T23:27:50.246Z,-5.31
2018-02-08T23:30:18.541Z,-5.36
2018-02-08T23:32:46.638Z,-5.36
2018-02-08T23:35:14.516Z,-5.34
2018-02-08T23:37:42.081Z,-5.30
2018-02-08T23:40:09.604Z,-5.33
2018-02-08T23:42:37.185Z,-5.34
2018-02-08T23:45:05.543Z,-5.41
2018-02-08T23:47:33.068Z,-5.44
2018-02-08T23:50:01.037Z,-5.48
2018-02-08T23:52:28.807Z,-5.46
2018-02-08T23:54:56.276Z,-5.51
2018-02-08T23:57:23.866Z,-5.51
2018-02-08T23:59:51.623Z,-5.46
